createdAt,value
2023-02-09T00:00:13.112Z,35.85
2023-02-09T00:02:40.520Z,36.42
2023-02-09T00:05:08.813Z,36.77
2023-02-09T00:07:36.075Z,36.10
2023-02-09T00:10:03.690Z,36.23
2023-02-09T00:12:49.970Z,35.63
2023-02-09T00:15:17.180Z,35.53
2023-02-09T00:17:44.614Z,35.52
2023-02-09T00:20:11.936Z,35.37
2023-02-09T00:22:39.073Z,35.36
2023-02-09T00:25:06.676Z,35.46
2023-02-09T00:27:35.739Z,35.62
2023-02-09T00:30:04.292Z,36.06
2023-02-09T00:32:32.858Z,36.57
2023-02-09T00:35:00.048Z,36.35
2023-02-09T00:37:28.426Z,36.28
2023-02-09T00:39:55.912Z,36.49
2023-02-09T00:42:23.064Z,36.48
2023-02-09T00:44:50.305Z,36.00
2023-02-09T00:47:17.793Z,35.71
2023-02-09T00:49:44.919Z,35.91
2023-02-09T00:52:12.084Z,35.94
2023-02-09T00:54:40.476Z,35.67
2023-02-09T00:57:07.643Z,35.60
2023-02-09T00:59:34.961Z,35.70
2023-02-09T01:02:02.980Z,35.64
2023-02-09T01:04:30.205Z,35.23
2023-02-09T01:06:57.384Z,35.61
2023-02-09T01:09:24.971Z,35.88
2023-02-09T01:11:52.130Z,35.23
2023-02-09T01:14:19.291Z,35.55
2023-02-09T01:16:46.869Z,35.22
2023-02-09T01:19:14.270Z,35.67
2023-02-09T01:21:41.617Z,35.76
2023-02-09T01:24:12.828Z,35.74
2023-02-09T01:26:40.073Z,35.94
2023-02-09T01:29:07.234Z,36.09
2023-02-09T01:31:35.748Z,35.75
2023-02-09T01:34:03.644Z,35.89
2023-02-09T01:36:31.309Z,36.24
2023-02-09T01:38:59.373Z,36.51
2023-02-09T01:41:26.761Z,37.38
2023-02-09T01:43:57.559Z,36.69
2023-02-09T01:46:26.234Z,36.98
2023-02-09T01:49:04.284Z,36.71
2023-02-09T01:51:32.742Z,36.08
2023-02-09T01:53:59.922Z,35.97
2023-02-09T01:56:28.710Z,35.55
2023-02-09T01:58:56.148Z,35.27
2023-02-09T02:01:23.559Z,35.14
2023-02-09T02:03:51.441Z,35.35
2023-02-09T02:06:18.577Z,35.68
2023-02-09T02:08:51.671Z,35.86
2023-02-09T02:11:19.159Z,36.66
2023-02-09T02:13:46.329Z,36.37
2023-02-09T02:16:35.139Z,36.13
2023-02-09T02:19:20.164Z,36.49
2023-02-09T02:22:06.821Z,36.88
2023-02-09T02:24:49.181Z,37.46
2023-02-09T02:27:28.544Z,37.58
2023-02-09T02:30:02.976Z,37.75
2023-02-09T02:32:37.706Z,37.34
2023-02-09T02:35:11.347Z,37.42
2023-02-09T02:37:57.637Z,36.76
2023-02-09T02:40:41.797Z,36.79
2023-02-09T02:43:11.687Z,36.76
2023-02-09T02:45:57.774Z,36.55
2023-02-09T02:48:28.319Z,36.51
2023-02-09T02:51:08.642Z,36.25
2023-02-09T02:53:36.566Z,36.03
2023-02-09T02:56:06.591Z,35.79
2023-02-09T02:58:33.879Z,35.95
2023-02-09T03:01:03.180Z,35.68
2023-02-09T03:03:31.950Z,35.25
2023-02-09T03:05:59.645Z,35.43
2023-02-09T03:08:27.143Z,35.72
2023-02-09T03:10:54.325Z,35.37
2023-02-09T03:13:24.542Z,35.26
2023-02-09T03:16:10.641Z,35.50
2023-02-09T03:18:48.512Z,36.01
2023-02-09T03:21:21.394Z,36.67
2023-02-09T03:23:51.615Z,36.51
2023-02-09T03:26:20.609Z,35.80
2023-02-09T03:28:48.517Z,35.10
2023-02-09T03:31:15.772Z,35.09
2023-02-09T03:33:43.391Z,35.09
2023-02-09T03:36:13.901Z,35.25
2023-02-09T03:38:41.109Z,35.02
2023-02-09T03:41:08.576Z,35.33
2023-02-09T03:43:54.428Z,35.23
2023-02-09T03:46:21.852Z,35.08
2023-02-09T03:48:50.743Z,35.36
2023-02-09T03:51:17.889Z,35.26
2023-02-09T03:53:47.175Z,35.48
2023-02-09T03:56:14.378Z,35.41
2023-02-09T03:58:41.738Z,35.31
2023-02-09T04:01:09.878Z,35.50
2023-02-09T04:03:38.024Z,36.04
2023-02-09T04:06:05.340Z,36.00
2023-02-09T04:08:33.807Z,38.15
2023-02-09T04:11:01.439Z,38.41
2023-02-09T04:13:28.606Z,36.90
2023-02-09T04:15:55.785Z,36.80
2023-02-09T04:18:23.259Z,36.83
2023-02-09T04:20:50.382Z,36.60
2023-02-09T04:23:19.481Z,36.61
2023-02-09T04:25:48.128Z,37.68
2023-02-09T04:28:17.988Z,37.31
2023-02-09T04:30:45.451Z,37.20
2023-02-09T04:33:13.250Z,38.48
2023-02-09T04:35:40.423Z,37.54
2023-02-09T04:38:07.578Z,37.13
2023-02-09T04:40:35.013Z,37.90
2023-02-09T04:43:02.152Z,37.01
2023-02-09T04:45:29.338Z,36.43
2023-02-09T04:47:56.824Z,36.13
2023-02-09T04:50:23.960Z,35.70
2023-02-09T04:52:51.633Z,35.78
2023-02-09T04:55:19.098Z,36.63
2023-02-09T04:58:04.794Z,36.59
2023-02-09T05:00:32.222Z,37.02
2023-02-09T05:02:59.484Z,36.59
2023-02-09T05:05:26.590Z,36.27
2023-02-09T05:07:54.011Z,35.94
2023-02-09T05:10:21.257Z,35.39
2023-02-09T05:12:48.384Z,35.74
2023-02-09T05:15:15.788Z,38.68
2023-02-09T05:17:42.960Z,37.47
2023-02-09T05:20:10.431Z,37.52
2023-02-09T05:22:38.326Z,38.68
2023-02-09T05:25:05.532Z,38.15
2023-02-09T05:27:32.701Z,38.02
2023-02-09T05:30:00.139Z,38.87
2023-02-09T05:32:27.482Z,37.60
2023-02-09T05:34:54.641Z,36.71
2023-02-09T05:37:22.054Z,36.22
2023-02-09T05:39:51.072Z,36.73
2023-02-09T05:42:18.238Z,36.50
2023-02-09T05:44:46.574Z,37.40
2023-02-09T05:47:14.432Z,36.86
2023-02-09T05:49:41.752Z,36.66
2023-02-09T05:52:09.335Z,36.53
2023-02-09T05:54:37.147Z,36.67
2023-02-09T05:57:04.625Z,36.08
2023-02-09T05:59:32.109Z,36.09
2023-02-09T06:01:59.410Z,35.75
2023-02-09T06:04:27.002Z,36.15
2023-02-09T06:06:54.393Z,37.47
2023-02-09T06:09:21.560Z,35.98
2023-02-09T06:11:49.320Z,35.39
2023-02-09T06:14:17.017Z,35.51
2023-02-09T06:16:44.325Z,35.40
2023-02-09T06:19:19.200Z,34.83
2023-02-09T06:21:46.621Z,35.58
2023-02-09T06:24:14.877Z,35.87
2023-02-09T06:26:42.106Z,36.39
2023-02-09T06:29:09.414Z,39.14
2023-02-09T06:31:38.121Z,38.53
2023-02-09T06:34:05.897Z,37.93
2023-02-09T06:36:33.180Z,39.10
2023-02-09T06:39:01.276Z,37.78
2023-02-09T06:41:28.444Z,37.50
2023-02-09T06:43:55.632Z,36.04
2023-02-09T06:46:23.177Z,36.20
2023-02-09T06:48:50.617Z,35.86
2023-02-09T06:51:17.910Z,35.47
2023-02-09T06:53:45.605Z,34.96
2023-02-09T06:56:13.268Z,35.31
2023-02-09T06:58:40.962Z,34.72
2023-02-09T07:01:09.950Z,34.88
2023-02-09T07:03:37.369Z,34.95
2023-02-09T07:06:05.875Z,35.07
2023-02-09T07:08:33.481Z,35.11
2023-02-09T07:11:04.104Z,34.61
2023-02-09T07:13:31.980Z,34.80
2023-02-09T07:16:00.029Z,33.72
2023-02-09T07:18:27.377Z,33.15
2023-02-09T07:20:57.424Z,33.80
2023-02-09T07:23:25.217Z,33.06
2023-02-09T07:25:52.447Z,33.83
2023-02-09T07:28:22.643Z,33.39
2023-02-09T07:30:51.955Z,34.12
2023-02-09T07:33:19.774Z,34.18
2023-02-09T07:35:47.335Z,33.24
2023-02-09T07:38:14.822Z,33.36
2023-02-09T07:40:46.401Z,31.62
2023-02-09T07:43:13.969Z,31.51
2023-02-09T07:45:41.739Z,30.42
2023-02-09T07:48:10.156Z,28.65
2023-02-09T07:50:37.456Z,28.30
2023-02-09T07:53:04.907Z,26.09
2023-02-09T07:55:32.069Z,25.96
2023-02-09T07:57:59.221Z,26.01
2023-02-09T08:00:26.836Z,27.43
2023-02-09T08:02:54.293Z,27.92
2023-02-09T08:05:23.039Z,28.97
2023-02-09T08:07:50.214Z,29.32
2023-02-09T08:10:18.540Z,30.80
2023-02-09T08:13:00.947Z,30.90
2023-02-09T08:15:37.398Z,32.40
2023-02-09T08:18:06.010Z,31.71
2023-02-09T08:20:33.654Z,33.16
2023-02-09T08:23:02.832Z,31.61
2023-02-09T08:25:29.969Z,32.75
2023-02-09T08:27:57.482Z,33.48
2023-02-09T08:30:24.675Z,32.41
2023-02-09T08:33:02.765Z,32.13
2023-02-09T08:35:30.786Z,31.91
2023-02-09T08:38:02.069Z,32.23
2023-02-09T08:40:29.912Z,32.35
2023-02-09T08:42:57.346Z,31.28
2023-02-09T08:45:24.633Z,33.05
2023-02-09T08:47:52.135Z,33.48
2023-02-09T08:50:19.328Z,33.29
2023-02-09T08:52:46.483Z,33.70
2023-02-09T08:55:13.907Z,32.63
2023-02-09T08:57:44.493Z,31.28
2023-02-09T09:00:12.379Z,32.35
2023-02-09T09:02:39.849Z,31.74
2023-02-09T09:05:07.089Z,32.25
2023-02-09T09:07:34.239Z,32.05
2023-02-09T09:10:01.697Z,31.73
2023-02-09T09:12:29.557Z,33.14
2023-02-09T09:14:56.795Z,32.24
2023-02-09T09:17:24.204Z,32.24
2023-02-09T09:19:55.751Z,33.63
2023-02-09T09:22:23.574Z,32.57
2023-02-09T09:24:52.436Z,31.34
2023-02-09T09:27:19.625Z,32.00
2023-02-09T09:29:46.819Z,29.32
2023-02-09T09:32:14.374Z,27.00
2023-02-09T09:34:42.015Z,26.82
2023-02-09T09:37:09.168Z,26.25
2023-02-09T09:39:36.584Z,25.51
2023-02-09T09:42:06.185Z,23.96
2023-02-09T09:44:35.123Z,23.31
2023-02-09T09:47:03.663Z,22.31
2023-02-09T09:49:31.560Z,19.27
2023-02-09T09:51:58.634Z,20.69
2023-02-09T09:54:27.247Z,18.72
2023-02-09T09:56:54.594Z,19.63
2023-02-09T09:59:22.656Z,21.43
2023-02-09T10:01:50.889Z,20.22
2023-02-09T10:04:19.650Z,20.01
2023-02-09T10:06:47.932Z,20.77
2023-02-09T10:09:36.308Z,19.87
2023-02-09T10:12:24.278Z,19.86
2023-02-09T10:14:51.483Z,21.66
2023-02-09T10:17:18.919Z,24.09
2023-02-09T10:19:59.277Z,23.65
2023-02-09T10:22:26.838Z,24.13
2023-02-09T10:24:54.196Z,25.90
2023-02-09T10:27:21.358Z,24.69
2023-02-09T10:29:48.806Z,25.35
2023-02-09T10:32:15.976Z,23.97
2023-02-09T10:34:46.312Z,26.57
2023-02-09T10:37:27.043Z,25.99
2023-02-09T10:39:54.191Z,25.13
2023-02-09T10:42:29.435Z,25.60
2023-02-09T10:44:57.273Z,25.04
2023-02-09T10:47:29.230Z,25.16
2023-02-09T10:50:00.984Z,24.03
2023-02-09T10:52:37.971Z,23.41
2023-02-09T10:55:06.858Z,24.18
2023-02-09T10:57:38.256Z,23.64
2023-02-09T11:00:17.557Z,24.94
2023-02-09T11:02:55.295Z,23.92
2023-02-09T11:05:22.630Z,23.02
2023-02-09T11:07:51.732Z,23.47
2023-02-09T11:10:20.488Z,24.16
2023-02-09T11:12:47.891Z,24.68
2023-02-09T11:15:15.990Z,24.53
2023-02-09T11:17:45.617Z,24.50
2023-02-09T11:20:17.607Z,23.89
2023-02-09T11:22:47.856Z,23.48
2023-02-09T11:25:15.106Z,23.76
2023-02-09T11:27:42.311Z,22.84
2023-02-09T11:30:18.704Z,23.88
2023-02-09T11:33:12.387Z,25.14
2023-02-09T11:35:39.844Z,25.03
2023-02-09T11:38:09.139Z,26.28
2023-02-09T11:40:52.429Z,26.85
2023-02-09T11:43:21.783Z,26.30
2023-02-09T11:45:49.585Z,25.90
2023-02-09T11:48:24.406Z,25.72
2023-02-09T11:51:04.317Z,27.25
2023-02-09T11:53:36.903Z,27.23
2023-02-09T11:56:05.623Z,26.58
2023-02-09T11:58:51.856Z,27.58
2023-02-09T12:01:48.460Z,27.04
2023-02-09T12:04:21.894Z,27.44
2023-02-09T12:06:50.065Z,28.42
2023-02-09T12:09:20.582Z,28.17
2023-02-09T12:11:50.736Z,28.32
2023-02-09T12:14:28.275Z,28.09
2023-02-09T12:17:05.761Z,28.19
2023-02-09T12:19:33.129Z,28.11
2023-02-09T12:22:19.182Z,28.26
2023-02-09T12:25:04.729Z,28.18
2023-02-09T12:27:31.915Z,27.89
2023-02-09T12:29:59.601Z,29.59
2023-02-09T12:32:30.796Z,27.97
2023-02-09T12:34:58.166Z,27.75
2023-02-09T12:37:28.038Z,29.64
2023-02-09T12:39:59.959Z,28.72
2023-02-09T12:42:28.277Z,27.93
2023-02-09T12:44:56.621Z,27.62
2023-02-09T12:47:40.314Z,26.97
2023-02-09T12:50:21.549Z,27.83
2023-02-09T12:53:07.657Z,30.12
2023-02-09T12:55:35.120Z,29.43
2023-02-09T12:58:02.304Z,29.10
2023-02-09T13:00:31.133Z,29.59
2023-02-09T13:02:58.549Z,29.38
2023-02-09T13:05:29.353Z,28.88
2023-02-09T13:08:18.763Z,29.01
2023-02-09T13:11:03.504Z,28.21
2023-02-09T13:13:30.678Z,27.96
2023-02-09T13:16:00.942Z,27.64
2023-02-09T13:18:34.270Z,29.38
2023-02-09T13:21:01.627Z,28.24
2023-02-09T13:23:28.820Z,28.45
2023-02-09T13:26:22.258Z,29.11
2023-02-09T13:28:49.796Z,28.65
2023-02-09T13:31:22.548Z,27.77
2023-02-09T13:33:51.437Z,27.85
2023-02-09T13:36:24.938Z,27.67
2023-02-09T13:38:52.993Z,28.86
2023-02-09T13:41:37.093Z,28.22
2023-02-09T13:44:05.741Z,27.74
2023-02-09T13:46:35.181Z,26.90
2023-02-09T13:49:16.261Z,27.71
2023-02-09T13:51:43.720Z,27.99
2023-02-09T13:54:21.114Z,28.16
2023-02-09T13:56:48.853Z,27.94
2023-02-09T13:59:17.706Z,27.21
2023-02-09T14:01:46.520Z,27.26
2023-02-09T14:04:25.461Z,26.74
2023-02-09T14:06:54.517Z,27.82
2023-02-09T14:09:27.334Z,27.98
2023-02-09T14:11:55.659Z,26.89
2023-02-09T14:14:23.073Z,27.55
2023-02-09T14:17:22.950Z,27.85
2023-02-09T14:19:52.412Z,28.35
2023-02-09T14:22:38.939Z,27.63
2023-02-09T14:25:15.703Z,29.51
2023-02-09T14:27:45.965Z,29.09
2023-02-09T14:30:17.176Z,28.36
2023-02-09T14:32:45.548Z,27.58
2023-02-09T14:35:26.040Z,29.92
2023-02-09T14:37:54.547Z,28.67
2023-02-09T14:40:21.703Z,27.94
2023-02-09T14:43:04.139Z,29.31
2023-02-09T14:45:36.484Z,28.61
2023-02-09T14:48:23.065Z,28.49
2023-02-09T14:50:51.478Z,29.03
2023-02-09T14:53:18.689Z,28.16
2023-02-09T14:55:46.248Z,27.54
2023-02-09T14:58:16.652Z,26.92
2023-02-09T15:00:43.851Z,28.30
2023-02-09T15:03:11.135Z,27.28
2023-02-09T15:05:38.623Z,28.36
2023-02-09T15:08:08.896Z,27.97
2023-02-09T15:10:37.170Z,27.85
2023-02-09T15:13:05.179Z,28.79
2023-02-09T15:15:33.360Z,28.06
2023-02-09T15:18:01.407Z,29.76
2023-02-09T15:20:31.381Z,29.31
2023-02-09T15:22:58.634Z,28.66
2023-02-09T15:25:25.901Z,29.19
2023-02-09T15:27:56.450Z,29.50
2023-02-09T15:30:28.165Z,28.02
2023-02-09T15:32:55.748Z,30.08
2023-02-09T15:35:24.416Z,28.17
2023-02-09T15:37:52.730Z,27.71
2023-02-09T15:40:43.072Z,27.52
2023-02-09T15:43:33.039Z,27.29
2023-02-09T15:46:18.812Z,27.28
2023-02-09T15:48:46.085Z,27.37
2023-02-09T15:51:13.845Z,28.77
2023-02-09T15:53:41.003Z,27.48
2023-02-09T15:56:08.373Z,27.40
2023-02-09T15:58:37.075Z,27.17
2023-02-09T16:01:04.683Z,28.12
2023-02-09T16:03:32.335Z,27.78
2023-02-09T16:06:00.102Z,28.40
2023-02-09T16:08:28.613Z,27.24
2023-02-09T16:10:56.496Z,27.13
2023-02-09T16:13:23.725Z,28.25
2023-02-09T16:15:51.003Z,27.83
2023-02-09T16:18:18.540Z,28.55
2023-02-09T16:20:47.240Z,27.60
2023-02-09T16:23:20.516Z,27.58
2023-02-09T16:25:49.894Z,27.25
2023-02-09T16:28:17.277Z,27.13
2023-02-09T16:30:48.939Z,27.17
2023-02-09T16:33:16.547Z,27.51
2023-02-09T16:35:44.281Z,27.54
2023-02-09T16:38:15.484Z,27.54
2023-02-09T16:40:43.146Z,27.73
2023-02-09T16:43:10.472Z,27.62
2023-02-09T16:45:38.713Z,28.33
2023-02-09T16:48:16.924Z,28.31
2023-02-09T16:50:46.837Z,28.64
2023-02-09T16:53:15.661Z,28.40
2023-02-09T16:55:43.040Z,28.59
2023-02-09T16:58:10.385Z,28.74
2023-02-09T17:00:38.279Z,28.60
2023-02-09T17:03:15.047Z,28.91
2023-02-09T17:05:47.457Z,28.70
2023-02-09T17:08:19.038Z,28.59
2023-02-09T17:10:47.260Z,29.07
2023-02-09T17:13:17.372Z,29.26
2023-02-09T17:15:45.631Z,29.23
2023-02-09T17:18:17.598Z,28.92
2023-02-09T17:20:46.241Z,28.96
2023-02-09T17:23:17.866Z,29.07
2023-02-09T17:25:45.881Z,29.08
2023-02-09T17:28:13.864Z,29.41
2023-02-09T17:30:41.514Z,29.56
2023-02-09T17:33:11.195Z,29.72
2023-02-09T17:38:27.109Z,30.54
2023-02-09T17:40:55.021Z,30.66
2023-02-09T17:43:22.634Z,30.13
2023-02-09T17:45:51.468Z,29.90
2023-02-09T17:48:19.462Z,29.66
2023-02-09T17:50:48.664Z,29.69
2023-02-09T17:53:22.056Z,29.49
2023-02-09T17:55:49.916Z,29.57
2023-02-09T17:58:17.499Z,29.55
2023-02-09T18:00:44.925Z,29.53
2023-02-09T18:03:16.917Z,29.77
2023-02-09T18:05:44.373Z,30.19
2023-02-09T18:08:11.920Z,30.81
2023-02-09T18:10:39.648Z,30.71
2023-02-09T18:13:06.973Z,30.90
2023-02-09T18:15:35.072Z,30.39
2023-02-09T18:18:02.958Z,30.37
2023-02-09T18:20:33.228Z,30.15
2023-02-09T18:23:02.587Z,30.20
2023-02-09T18:25:31.726Z,30.49
2023-02-09T18:27:59.033Z,30.09
2023-02-09T18:30:27.724Z,30.85
2023-02-09T18:32:55.545Z,30.60
2023-02-09T18:35:23.935Z,31.18
2023-02-09T18:37:51.300Z,31.29
2023-02-09T18:40:19.132Z,30.29
2023-02-09T18:42:46.761Z,30.28
2023-02-09T18:45:14.588Z,30.09
2023-02-09T18:47:43.288Z,30.19
2023-02-09T18:50:20.502Z,30.35
2023-02-09T18:52:48.749Z,30.63
2023-02-09T18:55:16.223Z,30.71
2023-02-09T18:57:43.522Z,30.63
2023-02-09T19:00:12.084Z,31.78
2023-02-09T19:02:39.461Z,31.95
2023-02-09T19:05:06.920Z,31.51
2023-02-09T19:07:35.894Z,31.27
2023-02-09T19:10:04.111Z,31.41
2023-02-09T19:12:31.480Z,31.66
2023-02-09T19:14:59.264Z,31.42
2023-02-09T19:17:26.621Z,31.97
2023-02-09T19:19:56.979Z,31.50
2023-02-09T19:22:24.857Z,31.60
2023-02-09T19:24:54.369Z,31.86
2023-02-09T19:27:21.812Z,31.18
2023-02-09T19:29:52.230Z,30.85
2023-02-09T19:32:19.773Z,30.95
2023-02-09T19:34:49.800Z,31.48
2023-02-09T19:37:18.776Z,31.67
2023-02-09T19:40:06.450Z,31.06
2023-02-09T19:42:34.149Z,30.94
2023-02-09T19:45:01.506Z,31.53
2023-02-09T19:47:30.005Z,31.15
2023-02-09T19:49:58.243Z,31.07
2023-02-09T19:52:25.915Z,32.11
2023-02-09T19:54:53.835Z,31.66
2023-02-09T19:57:22.026Z,31.56
2023-02-09T19:59:49.334Z,31.77
2023-02-09T20:02:16.950Z,32.22
2023-02-09T20:04:45.979Z,31.85
2023-02-09T20:07:13.477Z,31.96
2023-02-09T20:09:41.125Z,31.46
2023-02-09T20:12:08.778Z,31.63
2023-02-09T20:14:36.808Z,31.76
2023-02-09T20:17:04.231Z,31.85
2023-02-09T20:19:34.313Z,32.16
2023-02-09T20:22:01.658Z,32.50
2023-02-09T20:24:29.045Z,32.99
2023-02-09T20:26:56.637Z,33.22
2023-02-09T20:29:24.155Z,34.43
2023-02-09T20:31:51.608Z,35.43
2023-02-09T20:34:19.364Z,34.62
2023-02-09T20:36:48.196Z,33.72
2023-02-09T20:39:16.425Z,32.54
2023-02-09T20:42:04.834Z,33.91
2023-02-09T20:45:02.586Z,33.64
2023-02-09T20:47:30.645Z,33.81
2023-02-09T20:49:59.895Z,33.18
2023-02-09T20:52:28.238Z,32.99
2023-02-09T20:54:55.794Z,32.79
2023-02-09T20:57:29.259Z,34.68
2023-02-09T20:59:57.604Z,33.10
2023-02-09T21:02:25.199Z,33.85
2023-02-09T21:04:56.019Z,34.46
2023-02-09T21:07:25.165Z,34.01
2023-02-09T21:09:54.105Z,34.75
2023-02-09T21:12:21.683Z,34.08
2023-02-09T21:14:50.777Z,34.07
2023-02-09T21:17:18.745Z,34.26
2023-02-09T21:19:46.055Z,34.28
2023-02-09T21:22:14.073Z,33.63
2023-02-09T21:24:41.771Z,33.87
2023-02-09T21:27:09.148Z,34.72
2023-02-09T21:29:36.658Z,35.26
2023-02-09T21:32:04.729Z,34.88
2023-02-09T21:34:32.138Z,34.26
2023-02-09T21:36:59.594Z,35.21
2023-02-09T21:39:27.028Z,34.90
2023-02-09T21:42:13.121Z,35.59
2023-02-09T21:44:40.637Z,36.96
2023-02-09T21:47:08.067Z,36.42
2023-02-09T21:49:35.351Z,36.09
2023-02-09T21:52:02.810Z,36.71
2023-02-09T21:54:33.908Z,37.92
2023-02-09T21:57:01.116Z,37.24
2023-02-09T21:59:28.791Z,39.34
2023-02-09T22:01:56.050Z,35.19
2023-02-09T22:04:23.607Z,34.27
2023-02-09T22:06:50.860Z,34.60
2023-02-09T22:09:20.189Z,37.22
2023-02-09T22:11:47.650Z,37.52
2023-02-09T22:14:14.805Z,37.47
2023-02-09T22:16:42.590Z,36.88
2023-02-09T22:19:10.288Z,36.60
2023-02-09T22:21:37.473Z,36.88
2023-02-09T22:24:04.744Z,36.59
2023-02-09T22:26:32.176Z,34.53
2023-02-09T22:28:59.295Z,35.82
2023-02-09T22:31:26.525Z,34.80
2023-02-09T22:33:54.254Z,35.95
2023-02-09T22:36:21.579Z,36.98
2023-02-09T22:38:48.820Z,36.84
2023-02-09T22:41:22.875Z,37.43
2023-02-09T22:43:54.843Z,37.74
2023-02-09T22:46:23.068Z,36.50
2023-02-09T22:48:57.642Z,34.50
2023-02-09T22:51:26.925Z,34.12
2023-02-09T22:53:54.640Z,34.56
2023-02-09T22:56:21.832Z,35.40
2023-02-09T22:58:49.234Z,35.16
2023-02-09T23:01:16.522Z,35.08
2023-02-09T23:03:43.760Z,34.56
2023-02-09T23:06:12.754Z,34.71
2023-02-09T23:08:39.939Z,34.29
2023-02-09T23:11:08.812Z,34.36
2023-02-09T23:13:36.509Z,34.55
2023-02-09T23:16:10.674Z,35.40
2023-02-09T23:18:38.438Z,35.43
2023-02-09T23:21:06.716Z,34.91
2023-02-09T23:23:34.064Z,35.51
2023-02-09T23:26:01.630Z,35.64
2023-02-09T23:28:28.845Z,35.16
2023-02-09T23:30:56.123Z,34.61
2023-02-09T23:33:23.587Z,34.68
2023-02-09T23:35:50.736Z,34.04
2023-02-09T23:38:19.963Z,33.73
2023-02-09T23:40:47.446Z,34.01
2023-02-09T23:43:14.614Z,35.27
2023-02-09T23:45:41.835Z,35.14
2023-02-09T23:48:09.378Z,34.36
2023-02-09T23:50:36.537Z,33.67
2023-02-09T23:53:03.992Z,34.46
2023-02-09T23:55:31.493Z,34.54
2023-02-09T23:57:58.647Z,34.77
